Time;durP1;ratioP1;P1;durP2;ratioP2;P2;SDS_P1;SDS_P2;PMS_P1;PMS_P2;Temp;Humidity;BMP_temperature;BMP_pressure;BME280_temperature;BME280_humidity;BME280_pressure;Samples;Min_cycle;Max_cycle;Signal;HPM_P1;HPM_P2
2024/03/02 00:00:15;;;;;;;0.00;0.00;;;25.70;51.50;;;;;;5008574;28;20937;-45
2024/03/02 00:02:47;;;;;;;0.00;0.00;;;25.70;51.50;;;;;;5007457;28;20212;-40
2024/03/02 00:05:18;;;;;;;0.00;0.00;;;25.80;51.50;;;;;;5007703;28;20208;-44
2024/03/02 00:07:55;;;;;;;0.00;0.00;;;25.80;51.50;;;;;;5027709;28;20196;-48
2024/03/02 00:10:31;;;;;;;0.00;0.00;;;25.80;51.50;;;;;;5027588;28;20307;-43
2024/03/02 00:13:04;;;;;;;0.00;0.00;;;25.80;51.50;;;;;;5009675;28;20255;-45
2024/03/02 00:15:44;;;;;;;0.00;0.00;;;25.80;51.50;;;;;;4988309;28;20211;-44
2024/03/02 00:18:17;;;;;;;0.00;0.00;;;25.90;51.50;;;;;;4994382;28;20199;-47
2024/03/02 00:20:47;;;;;;;0.00;0.00;;;25.90;51.50;;;;;;5027042;28;20235;-48
2024/03/02 00:23:19;;;;;;;0.00;0.00;;;25.90;51.50;;;;;;5028379;28;20684;-45
2024/03/02 00:25:53;;;;;;;0.00;0.00;;;25.90;51.50;;;;;;5010868;28;20204;-44
2024/03/02 00:28:27;;;;;;;0.00;0.00;;;25.90;51.50;;;;;;5008112;28;20197;-44
2024/03/02 00:31:02;;;;;;;0.00;0.00;;;26.00;51.50;;;;;;5014182;28;20558;-43
2024/03/02 00:33:35;;;;;;;0.00;0.00;;;26.00;52.10;;;;;;5027263;28;20459;-42
2024/03/02 00:36:07;;;;;;;0.08;0.08;;;26.00;51.50;;;;;;5027982;28;20208;-41
2024/03/02 00:38:45;;;;;;;0.00;0.00;;;26.00;51.40;;;;;;5026959;28;20204;-46
2024/03/02 00:41:24;;;;;;;0.00;0.00;;;26.10;51.50;;;;;;5027792;28;20666;-43
2024/03/02 00:44:06;;;;;;;0.00;0.00;;;26.10;51.50;;;;;;5019336;28;20246;-41
2024/03/02 00:46:38;;;;;;;0.00;0.00;;;26.20;51.50;;;;;;5027870;28;20290;-41
2024/03/02 00:49:21;;;;;;;0.00;0.00;;;26.20;51.50;;;;;;5014842;28;20255;-39
2024/03/02 00:51:53;;;;;;;0.00;0.00;;;26.20;51.40;;;;;;5008129;28;20279;-40
2024/03/02 00:54:25;;;;;;;0.00;0.00;;;26.20;51.30;;;;;;5007168;28;20234;-40
2024/03/02 00:56:56;;;;;;;0.00;0.00;;;26.20;51.40;;;;;;5016947;28;20223;-40
2024/03/02 00:59:29;;;;;;;0.00;0.00;;;26.30;51.40;;;;;;5027827;28;20951;-41
2024/03/02 01:02:00;;;;;;;0.00;0.00;;;26.30;51.40;;;;;;5027334;28;20235;-40
2024/03/02 01:04:31;;;;;;;0.00;0.00;;;26.30;51.40;;;;;;5027390;28;20196;-44
2024/03/02 01:07:01;;;;;;;0.00;0.00;;;26.40;51.40;;;;;;5027248;28;20208;-40
2024/03/02 01:09:32;;;;;;;0.00;0.00;;;26.40;51.40;;;;;;5002229;28;20201;-44
2024/03/02 01:12:02;;;;;;;0.00;0.00;;;26.40;51.30;;;;;;4988362;28;20198;-46
2024/03/02 01:14:35;;;;;;;0.00;0.00;;;26.40;51.20;;;;;;4987360;28;20201;-42
2024/03/02 01:17:06;;;;;;;0.00;0.00;;;26.40;51.20;;;;;;4991093;28;20410;-44
2024/03/02 01:19:37;;;;;;;0.00;0.00;;;26.50;51.20;;;;;;4991304;28;20205;-45
2024/03/02 01:22:08;;;;;;;0.00;0.00;;;26.50;51.20;;;;;;4998521;28;20263;-40
2024/03/02 01:24:39;;;;;;;0.00;0.00;;;26.50;51.10;;;;;;5023800;28;20204;-44
2024/03/02 01:27:09;;;;;;;0.00;0.00;;;26.60;51.20;;;;;;5010910;28;20208;-44
2024/03/02 01:29:42;;;;;;;0.00;0.00;;;26.60;51.20;;;;;;5002140;28;20681;-40
2024/03/02 01:32:13;;;;;;;0.00;0.00;;;26.60;51.00;;;;;;4997092;28;20204;-39
2024/03/02 01:34:43;;;;;;;0.00;0.00;;;26.60;51.00;;;;;;4993854;28;20594;-41
2024/03/02 01:37:14;;;;;;;0.00;0.00;;;26.70;51.00;;;;;;5017856;28;20570;-40
2024/03/02 01:39:45;;;;;;;0.00;0.00;;;26.70;51.00;;;;;;4999772;28;20625;-42
2024/03/02 01:42:15;;;;;;;0.00;0.00;;;26.70;51.00;;;;;;5000067;28;20708;-41
2024/03/02 01:44:48;;;;;;;0.00;0.00;;;26.70;51.00;;;;;;5001070;28;20197;-40
2024/03/02 01:47:18;;;;;;;0.00;0.00;;;26.80;50.90;;;;;;5004502;28;20196;-40
2024/03/02 01:49:49;;;;;;;0.00;0.00;;;26.80;51.00;;;;;;5003171;28;20225;-39
2024/03/02 01:52:20;;;;;;;0.00;0.00;;;26.80;50.90;;;;;;4990724;28;20255;-39
2024/03/02 01:54:50;;;;;;;0.00;0.00;;;26.80;50.90;;;;;;4999691;28;20209;-40
2024/03/02 01:57:22;;;;;;;0.00;0.00;;;26.90;51.00;;;;;;5010220;28;20231;-40
2024/03/02 01:59:54;;;;;;;0.00;0.00;;;26.90;51.00;;;;;;5010296;28;20227;-40
2024/03/02 02:02:25;;;;;;;0.00;0.00;;;26.90;51.00;;;;;;5023063;28;20227;-40
2024/03/02 02:04:55;;;;;;;0.00;0.00;;;26.90;50.90;;;;;;5029331;28;20672;-40
2024/03/02 02:07:26;;;;;;;0.00;0.00;;;26.90;50.80;;;;;;5029595;28;20204;-41
2024/03/02 02:09:57;;;;;;;0.00;0.00;;;27.00;50.80;;;;;;5029335;28;20587;-40
2024/03/02 02:12:28;;;;;;;0.00;0.00;;;27.00;50.80;;;;;;5029924;28;20200;-40
2024/03/02 02:15:00;;;;;;;0.00;0.00;;;27.00;50.80;;;;;;5028760;28;20687;-44
2024/03/02 02:17:31;;;;;;;0.00;0.00;;;27.00;51.30;;;;;;5008253;28;20193;-41
2024/03/02 02:20:02;;;;;;;0.00;0.00;;;27.00;50.70;;;;;;5009470;28;20216;-38
2024/03/02 02:22:37;;;;;;;0.00;0.00;;;27.00;50.70;;;;;;5009563;28;20286;-40
2024/03/02 02:25:09;;;;;;;0.00;0.00;;;27.10;50.70;;;;;;5009369;28;20208;-40
2024/03/02 02:27:39;;;;;;;0.00;0.00;;;27.10;50.70;;;;;;4988563;28;20205;-37
2024/03/02 02:30:11;;;;;;;0.00;0.00;;;27.10;50.70;;;;;;4989370;28;20224;-39
2024/03/02 02:32:41;;;;;;;0.00;0.00;;;27.20;50.80;;;;;;4989870;28;20198;-41
2024/03/02 02:35:12;;;;;;;0.00;0.00;;;27.10;50.70;;;;;;4989534;28;20479;-41
2024/03/02 02:37:45;;;;;;;0.00;0.00;;;27.20;50.80;;;;;;5006859;28;20310;-38
2024/03/02 02:40:18;;;;;;;0.00;0.00;;;27.20;50.80;;;;;;5012986;28;20217;-41
2024/03/02 02:42:49;;;;;;;0.00;0.00;;;27.20;50.80;;;;;;5012492;28;20756;-38
2024/03/02 02:45:20;;;;;;;0.00;0.00;;;27.20;50.80;;;;;;5013143;28;20579;-41
2024/03/02 02:47:50;;;;;;;0.00;0.00;;;27.20;50.80;;;;;;5012698;28;20207;-38
2024/03/02 02:50:21;;;;;;;0.00;0.00;;;27.20;50.80;;;;;;5012485;28;20213;-38
2024/03/02 02:52:54;;;;;;;0.00;0.00;;;27.20;50.80;;;;;;5011124;28;20201;-39
2024/03/02 02:55:24;;;;;;;0.00;0.00;;;27.30;50.80;;;;;;5004102;28;20483;-37
2024/03/02 02:57:55;;;;;;;0.00;0.00;;;27.20;50.70;;;;;;5009271;28;20208;-40
2024/03/02 03:00:26;;;;;;;0.00;0.00;;;27.20;50.60;;;;;;5007928;28;20221;-38
2024/03/02 03:02:56;;;;;;;0.00;0.00;;;27.30;50.70;;;;;;5008138;28;20587;-38
2024/03/02 03:05:27;;;;;;;0.00;0.00;;;27.30;50.60;;;;;;5008005;28;20212;-42
2024/03/02 03:08:00;;;;;;;0.00;0.00;;;27.30;50.50;;;;;;5029008;28;20708;-38
2024/03/02 03:10:30;;;;;;;0.00;0.00;;;27.30;50.50;;;;;;5028553;28;20227;-38
2024/03/02 03:13:01;;;;;;;0.00;0.00;;;27.40;50.50;;;;;;5014170;28;20201;-44
2024/03/02 03:15:32;;;;;;;0.00;0.00;;;27.40;50.50;;;;;;5008639;28;20205;-46
2024/03/02 03:18:03;;;;;;;0.00;0.00;;;27.40;50.40;;;;;;5013830;28;20200;-39
2024/03/02 03:20:34;;;;;;;0.00;0.00;;;27.40;50.40;;;;;;5028077;28;20220;-47
2024/03/02 03:23:07;;;;;;;0.00;0.00;;;27.40;50.50;;;;;;5028208;28;20248;-47
2024/03/02 03:25:37;;;;;;;0.03;0.03;;;27.50;50.50;;;;;;5013474;28;20204;-44
2024/03/02 03:28:09;;;;;;;0.00;0.00;;;27.50;50.50;;;;;;5007781;28;20208;-41
2024/03/02 03:30:40;;;;;;;0.00;0.00;;;27.50;50.50;;;;;;5012709;28;20303;-44
2024/03/02 03:33:11;;;;;;;0.00;0.00;;;27.50;50.50;;;;;;5028175;28;20199;-45
2024/03/02 03:35:41;;;;;;;0.00;0.00;;;27.50;50.50;;;;;;5028531;28;20209;-43
2024/03/02 03:38:14;;;;;;;0.00;0.00;;;27.50;50.50;;;;;;5027654;28;20204;-43
2024/03/02 03:40:44;;;;;;;0.00;0.00;;;27.60;50.30;;;;;;5028703;28;20243;-44
2024/03/02 03:43:15;;;;;;;0.00;0.00;;;27.60;50.20;;;;;;5015095;28;20221;-42
2024/03/02 03:45:46;;;;;;;0.00;0.00;;;27.60;50.10;;;;;;5009249;28;20200;-38
2024/03/02 03:48:16;;;;;;;0.00;0.00;;;27.60;50.00;;;;;;5024024;28;20404;-38
2024/03/02 03:50:47;;;;;;;0.00;0.00;;;27.70;49.90;;;;;;5004719;28;20228;-37
2024/03/02 03:53:20;;;;;;;0.00;0.00;;;27.70;49.80;;;;;;5007615;28;20201;-39
2024/03/02 03:55:51;;;;;;;0.00;0.00;;;27.70;49.70;;;;;;5008283;28;20209;-38
2024/03/02 03:58:21;;;;;;;0.00;0.00;;;27.80;49.70;;;;;;5007665;28;20234;-38
2024/03/02 04:00:52;;;;;;;0.00;0.00;;;27.80;49.50;;;;;;5026971;28;20755;-41
2024/03/02 04:03:22;;;;;;;0.00;0.00;;;27.80;49.40;;;;;;5027837;28;20285;-40
2024/03/02 04:05:53;;;;;;;0.00;0.00;;;27.80;49.30;;;;;;5027230;28;20254;-44
2024/03/02 04:08:26;;;;;;;0.00;0.00;;;27.90;49.10;;;;;;5014270;28;20205;-45
2024/03/02 04:10:56;;;;;;;0.00;0.00;;;27.90;49.10;;;;;;5008445;28;20217;-42
2024/03/02 04:13:27;;;;;;;0.00;0.00;;;27.90;48.90;;;;;;5027294;28;20199;-41
2024/03/02 04:15:58;;;;;;;0.00;0.00;;;27.90;48.90;;;;;;5028207;28;20204;-42
2024/03/02 04:18:28;;;;;;;0.00;0.00;;;28.00;48.90;;;;;;5027514;28;20207;-41
2024/03/02 04:20:59;;;;;;;0.00;0.00;;;28.00;48.90;;;;;;5008695;28;20217;-40
2024/03/02 04:23:32;;;;;;;0.00;0.00;;;28.00;48.80;;;;;;4987987;28;20283;-40
2024/03/02 04:26:03;;;;;;;0.00;0.00;;;28.00;48.80;;;;;;5021689;28;20223;-43
2024/03/02 04:28:33;;;;;;;0.00;0.00;;;28.10;48.90;;;;;;5024803;28;20208;-45
2024/03/02 04:31:04;;;;;;;0.00;0.00;;;28.10;48.90;;;;;;5007572;28;20232;-41
2024/03/02 04:33:34;;;;;;;0.00;0.00;;;28.10;48.90;;;;;;5008537;28;20209;-44
2024/03/02 04:36:05;;;;;;;0.00;0.00;;;28.10;48.70;;;;;;5008973;28;20649;-43
2024/03/02 04:38:38;;;;;;;0.00;0.00;;;28.10;48.80;;;;;;5012591;28;20422;-42
2024/03/02 04:41:09;;;;;;;0.00;0.00;;;28.10;48.80;;;;;;5006922;28;20224;-39
2024/03/02 04:43:40;;;;;;;0.00;0.00;;;28.20;48.80;;;;;;5006324;28;20235;-39
2024/03/02 04:46:11;;;;;;;0.00;0.00;;;28.20;48.70;;;;;;5007535;28;20432;-39
2024/03/02 04:48:41;;;;;;;0.00;0.00;;;28.20;48.50;;;;;;5007404;28;20193;-40
2024/03/02 04:51:13;;;;;;;0.00;0.00;;;28.20;48.40;;;;;;5017600;28;20227;-41
2024/03/02 04:53:45;;;;;;;0.00;0.00;;;28.20;48.30;;;;;;5031328;28;20211;-41
2024/03/02 04:58:59;;;;;;;0.00;0.00;;;28.30;48.20;;;;;;4989613;28;20781;-40
2024/03/02 05:01:30;;;;;;;0.00;0.00;;;28.30;48.20;;;;;;4992602;28;20229;-41
2024/03/02 05:04:01;;;;;;;0.00;0.00;;;28.30;48.10;;;;;;5017449;28;20208;-41
2024/03/02 05:06:31;;;;;;;0.00;0.00;;;28.30;48.00;;;;;;5031509;28;20200;-46
2024/03/02 05:09:04;;;;;;;0.00;0.00;;;28.30;47.90;;;;;;5030418;28;20196;-43
2024/03/02 05:14:18;;;;;;;0.00;0.00;;;28.40;48.00;;;;;;5005789;28;20215;-42
2024/03/02 05:16:48;;;;;;;0.00;0.00;;;28.40;48.00;;;;;;5021363;28;20219;-40
2024/03/02 05:19:19;;;;;;;0.00;0.00;;;28.40;48.10;;;;;;5030856;28;20196;-41
2024/03/02 05:21:50;;;;;;;0.00;0.00;;;28.40;48.20;;;;;;5030575;28;20204;-40
2024/03/02 05:24:23;;;;;;;0.00;0.00;;;28.40;48.30;;;;;;5026350;28;20246;-40
2024/03/02 05:26:54;;;;;;;0.00;0.00;;;28.40;48.20;;;;;;5010421;28;20197;-43
2024/03/02 05:29:24;;;;;;;0.00;0.00;;;28.40;48.20;;;;;;5011859;28;20201;-40
2024/03/02 05:31:55;;;;;;;0.00;0.00;;;28.40;48.20;;;;;;5030547;28;20254;-40
2024/03/02 05:34:26;;;;;;;0.00;0.00;;;28.40;48.20;;;;;;5030544;28;20210;-47
2024/03/02 05:36:57;;;;;;;0.00;0.00;;;28.40;48.30;;;;;;5009353;28;20200;-45
2024/03/02 05:39:30;;;;;;;0.00;0.00;;;28.40;48.20;;;;;;5010063;28;20274;-42
2024/03/02 05:42:00;;;;;;;0.00;0.00;;;28.40;48.20;;;;;;5009014;28;20303;-43
2024/03/02 05:44:32;;;;;;;0.00;0.00;;;28.40;48.10;;;;;;5026273;28;20200;-41
2024/03/02 05:47:02;;;;;;;0.00;0.00;;;28.40;47.90;;;;;;5030125;28;20200;-45
2024/03/02 05:49:33;;;;;;;0.00;0.00;;;28.40;47.90;;;;;;5008828;28;20650;-44
2024/03/02 05:52:04;;;;;;;0.00;0.00;;;28.40;47.70;;;;;;4990878;28;20224;-42
2024/03/02 05:54:37;;;;;;;0.00;0.00;;;28.40;47.70;;;;;;4997604;28;20205;-44
2024/03/02 05:57:31;;;;;;;0.00;0.00;;;28.40;47.70;;;;;;5014157;28;20203;-45
2024/03/02 06:00:02;;;;;;;0.00;0.00;;;28.40;47.60;;;;;;5025552;28;20227;-41
2024/03/02 06:02:36;;;;;;;0.00;0.00;;;28.40;47.50;;;;;;4990055;28;20283;-42
2024/03/02 06:05:07;;;;;;;0.00;0.00;;;28.40;47.40;;;;;;4990037;28;20244;-44
2024/03/02 06:07:38;;;;;;;0.00;0.00;;;28.40;47.40;;;;;;4990588;28;20202;-44
2024/03/02 06:10:11;;;;;;;0.00;0.00;;;28.40;47.50;;;;;;4990395;28;20243;-42
2024/03/02 06:12:42;;;;;;;0.00;0.00;;;28.40;47.40;;;;;;5029278;28;20204;-43
2024/03/02 06:15:13;;;;;;;0.00;0.00;;;28.40;47.40;;;;;;5030058;28;20204;-45
2024/03/02 06:17:43;;;;;;;0.00;0.00;;;28.40;47.50;;;;;;5029614;28;20235;-44
2024/03/02 06:20:14;;;;;;;0.00;0.00;;;28.40;47.50;;;;;;5029870;28;20224;-44
2024/03/02 06:22:45;;;;;;;0.00;0.00;;;28.40;47.50;;;;;;5009819;28;20867;-41
2024/03/02 06:25:17;;;;;;;0.00;0.00;;;28.40;47.60;;;;;;5010853;28;20552;-40
2024/03/02 06:27:48;;;;;;;0.00;0.00;;;28.40;47.60;;;;;;5029485;28;20653;-45
2024/03/02 06:30:29;;;;;;;0.00;0.00;;;28.40;47.70;;;;;;5030083;28;20246;-42
2024/03/02 06:33:00;;;;;;;0.00;0.00;;;28.40;47.70;;;;;;5028719;28;20681;-42
2024/03/02 06:35:35;;;;;;;0.00;0.00;;;28.40;47.60;;;;;;5029333;28;20207;-44
2024/03/02 06:38:05;;;;;;;0.00;0.00;;;28.40;47.70;;;;;;5028872;28;20746;-43
2024/03/02 06:40:39;;;;;;;0.00;0.00;;;28.40;47.60;;;;;;5028332;28;20227;-50
2024/03/02 06:43:10;;;;;;;0.00;0.00;;;28.40;47.70;;;;;;5029400;28;20236;-47
2024/03/02 06:45:40;;;;;;;0.00;0.00;;;28.40;47.50;;;;;;5010421;28;20201;-49
2024/03/02 06:48:11;;;;;;;0.00;0.00;;;28.40;47.40;;;;;;5010099;28;20196;-46
2024/03/02 06:50:42;;;;;;;0.00;0.00;;;28.40;47.30;;;;;;5008712;28;20224;-45
2024/03/02 06:53:13;;;;;;;0.00;0.00;;;28.30;47.30;;;;;;4997443;28;20201;-49
2024/03/02 06:55:45;;;;;;;0.00;0.00;;;28.40;47.30;;;;;;5011939;28;20201;-46
2024/03/02 06:58:17;;;;;;;0.00;0.00;;;28.40;47.30;;;;;;5012223;28;20232;-48
2024/03/02 07:00:47;;;;;;;0.00;0.00;;;28.30;47.20;;;;;;5012262;28;20715;-46
2024/03/02 07:03:18;;;;;;;0.00;0.00;;;28.30;47.30;;;;;;5012114;28;20235;-44
2024/03/02 07:05:49;;;;;;;0.00;0.00;;;28.30;47.30;;;;;;5012495;28;20197;-46
2024/03/02 07:08:20;;;;;;;0.00;0.00;;;28.30;47.30;;;;;;5012070;28;20545;-48
2024/03/02 07:10:52;;;;;;;0.00;0.00;;;28.30;47.30;;;;;;5011666;28;20763;-50
2024/03/02 07:13:23;;;;;;;0.00;0.00;;;28.30;47.20;;;;;;5011361;28;20208;-42
2024/03/02 07:16:21;;;;;;;0.00;0.00;;;28.30;47.10;;;;;;5012247;28;20204;-41
2024/03/02 07:18:53;;;;;;;0.00;0.00;;;28.30;46.90;;;;;;5012089;28;20600;-48
2024/03/02 07:21:24;;;;;;;0.00;0.00;;;28.30;46.70;;;;;;5011721;28;20220;-46
2024/03/02 07:23:55;;;;;;;0.00;0.00;;;28.30;46.60;;;;;;5012290;28;20229;-46
2024/03/02 07:26:27;;;;;;;0.00;0.00;;;28.20;47.10;;;;;;5011332;28;20197;-43
2024/03/02 07:28:58;;;;;;;0.00;0.00;;;28.20;46.40;;;;;;5011471;28;20201;-41
2024/03/02 07:31:29;;;;;;;0.00;0.00;;;28.20;46.40;;;;;;5008406;28;20275;-46
2024/03/02 07:33:59;;;;;;;0.00;0.00;;;28.20;46.50;;;;;;4992425;28;20197;-45
2024/03/02 07:36:30;;;;;;;0.00;0.00;;;28.20;46.50;;;;;;5006163;28;20189;-48
2024/03/02 07:39:01;;;;;;;0.00;0.00;;;28.10;46.60;;;;;;5011263;28;20568;-40
2024/03/02 07:41:33;;;;;;;0.00;0.00;;;28.10;46.70;;;;;;5011698;28;20239;-40
2024/03/02 07:44:04;;;;;;;0.00;0.00;;;28.10;46.80;;;;;;5009854;28;20592;-42
2024/03/02 07:46:35;;;;;;;0.00;0.00;;;28.10;46.80;;;;;;5005822;28;20200;-43
2024/03/02 07:49:05;;;;;;;0.00;0.00;;;28.10;46.80;;;;;;5007974;28;20201;-40
2024/03/02 07:51:36;;;;;;;0.00;0.00;;;28.10;46.90;;;;;;5008016;28;20220;-39
2024/03/02 07:54:07;;;;;;;0.00;0.00;;;28.10;46.90;;;;;;5007041;28;20200;-40
2024/03/02 07:56:39;;;;;;;0.00;0.00;;;28.10;46.80;;;;;;5008653;28;20204;-39
2024/03/02 07:59:10;;;;;;;0.00;0.00;;;28.10;46.80;;;;;;5001603;28;20208;-41
2024/03/02 08:01:41;;;;;;;0.00;0.00;;;28.00;46.70;;;;;;4987626;28;20295;-41
2024/03/02 08:04:12;;;;;;;0.00;0.00;;;28.00;46.60;;;;;;5003790;28;20231;-40
2024/03/02 08:06:42;;;;;;;0.00;0.00;;;28.00;46.50;;;;;;5007553;28;20579;-42
2024/03/02 08:09:13;;;;;;;0.00;0.00;;;28.00;46.40;;;;;;5007382;28;20205;-47
2024/03/02 08:11:46;;;;;;;0.00;0.00;;;28.00;46.30;;;;;;5013582;28;20227;-43
2024/03/02 08:14:16;;;;;;;0.00;0.00;;;28.00;46.10;;;;;;5016304;28;20676;-38
2024/03/02 08:16:47;;;;;;;0.00;0.00;;;28.00;46.00;;;;;;5008254;28;20197;-40
2024/03/02 08:19:18;;;;;;;0.00;0.00;;;27.90;45.90;;;;;;5008286;28;20606;-47
2024/03/02 08:21:49;;;;;;;0.00;0.00;;;27.90;45.80;;;;;;5008213;28;20283;-41
2024/03/02 08:24:20;;;;;;;0.00;0.00;;;27.90;45.80;;;;;;5008508;28;20704;-42
2024/03/02 08:26:52;;;;;;;0.00;0.00;;;27.90;45.80;;;;;;5032431;28;20272;-40
2024/03/02 08:29:23;;;;;;;0.00;0.00;;;27.80;45.90;;;;;;5031080;28;20675;-44
2024/03/02 08:31:54;;;;;;;0.00;0.00;;;27.80;45.90;;;;;;5031138;28;20513;-45
2024/03/02 08:34:24;;;;;;;0.00;0.00;;;27.80;46.00;;;;;;5030778;28;20204;-41
2024/03/02 08:36:55;;;;;;;0.00;0.00;;;27.80;46.10;;;;;;5031726;28;20211;-42
2024/03/02 08:39:26;;;;;;;0.00;0.00;;;27.80;46.10;;;;;;5025196;28;20203;-46
2024/03/02 08:41:58;;;;;;;0.00;0.00;;;27.80;46.20;;;;;;5010966;28;20205;-42
2024/03/02 08:44:29;;;;;;;0.00;0.00;;;27.80;46.30;;;;;;5010745;28;20596;-44
2024/03/02 08:47:00;;;;;;;0.00;0.00;;;27.80;46.30;;;;;;5011776;28;20200;-41
2024/03/02 08:49:30;;;;;;;0.00;0.00;;;27.80;46.30;;;;;;5010423;28;20197;-43
2024/03/02 08:52:01;;;;;;;0.00;0.00;;;27.80;46.30;;;;;;5018194;28;20664;-42
2024/03/02 08:54:33;;;;;;;0.00;0.00;;;27.80;46.30;;;;;;4997445;28;20209;-42
2024/03/02 08:57:06;;;;;;;0.00;0.00;;;27.80;46.30;;;;;;5011136;28;20205;-39
2024/03/02 08:59:37;;;;;;;0.00;0.00;;;27.80;46.20;;;;;;5011330;28;20205;-49
2024/03/02 09:02:09;;;;;;;0.00;0.00;;;27.80;46.20;;;;;;5010113;28;20212;-39
2024/03/02 09:04:39;;;;;;;0.00;0.00;;;27.70;46.10;;;;;;5011032;28;20708;-40
2024/03/02 09:07:10;;;;;;;0.00;0.00;;;27.70;46.00;;;;;;5029368;28;20207;-45
2024/03/02 09:09:41;;;;;;;0.00;0.00;;;27.70;46.00;;;;;;5030164;28;20215;-42
2024/03/02 09:12:13;;;;;;;0.00;0.00;;;27.70;46.00;;;;;;5030858;28;20208;-42
2024/03/02 09:14:44;;;;;;;0.00;0.00;;;27.70;46.50;;;;;;5030877;28;20211;-42
2024/03/02 09:17:15;;;;;;;0.00;0.00;;;27.70;46.00;;;;;;5030417;28;20204;-45
2024/03/02 09:19:46;;;;;;;0.00;0.00;;;27.60;45.90;;;;;;5029996;28;20231;-41
2024/03/02 09:22:16;;;;;;;0.00;0.00;;;27.60;45.90;;;;;;5030427;28;20203;-43
2024/03/02 09:24:47;;;;;;;0.00;0.00;;;27.60;45.90;;;;;;5021449;28;20243;-42
2024/03/02 09:27:19;;;;;;;0.00;0.00;;;27.60;45.90;;;;;;5010927;28;20292;-40
2024/03/02 09:29:50;;;;;;;0.00;0.00;;;27.60;45.90;;;;;;5010160;28;20705;-43
2024/03/02 09:32:21;;;;;;;0.00;0.00;;;27.50;45.80;;;;;;5025215;28;20204;-40
2024/03/02 09:34:53;;;;;;;0.00;0.00;;;27.50;45.80;;;;;;5030558;28;20640;-38
2024/03/02 09:37:23;;;;;;;0.00;0.00;;;27.50;45.70;;;;;;5029951;22;20228;-46
2024/03/02 09:39:54;;;;;;;0.00;0.00;;;27.50;45.70;;;;;;5004115;28;20212;-45
2024/03/02 09:42:27;;;;;;;0.00;0.00;;;27.50;45.70;;;;;;5010447;28;20287;-45
2024/03/02 09:44:59;;;;;;;0.00;0.00;;;27.50;45.60;;;;;;5026783;28;20227;-46
2024/03/02 09:47:30;;;;;;;0.00;0.00;;;27.50;45.60;;;;;;5030167;28;20204;-48
2024/03/02 09:50:00;;;;;;;0.00;0.00;;;27.40;45.60;;;;;;5012433;28;20706;-46
2024/03/02 09:52:33;;;;;;;0.00;0.00;;;27.40;45.60;;;;;;4990329;28;20208;-46
2024/03/02 09:55:05;;;;;;;0.00;0.00;;;27.40;45.50;;;;;;5000913;28;20288;-45
2024/03/02 09:57:37;;;;;;;0.00;0.00;;;27.40;45.40;;;;;;5020356;28;20586;-45
2024/03/02 10:00:14;;;;;;;0.00;0.00;;;27.40;45.40;;;;;;5029509;28;20212;-47
2024/03/02 10:02:45;;;;;;;0.00;0.00;;;27.40;45.50;;;;;;5029489;28;20231;-47
2024/03/02 10:05:25;;;;;;;0.00;0.00;;;27.30;45.40;;;;;;5029757;28;20286;-47
2024/03/02 10:08:03;;;;;;;0.00;0.00;;;27.30;46.00;;;;;;5029782;28;20828;-46
2024/03/02 10:10:42;;;;;;;0.00;0.00;;;27.30;45.40;;;;;;5029596;28;20308;-48
2024/03/02 10:13:16;;;;;;;0.00;0.00;;;27.30;45.40;;;;;;5029492;28;20786;-46
2024/03/02 10:15:47;;;;;;;0.00;0.00;;;27.30;45.50;;;;;;5011599;28;20585;-46
2024/03/02 10:18:28;;;;;;;0.00;0.00;;;27.20;45.50;;;;;;4990207;28;20220;-46
2024/03/02 10:21:15;;;;;;;0.00;0.00;;;27.20;45.50;;;;;;4990823;28;20225;-49
2024/03/02 10:23:46;;;;;;;0.00;0.00;;;27.20;45.60;;;;;;5004561;28;20243;-47
2024/03/02 10:26:20;;;;;;;0.00;0.00;;;27.20;45.70;;;;;;5005627;28;20198;-47
2024/03/02 10:28:59;;;;;;;0.00;0.00;;;27.20;45.70;;;;;;5002653;28;20204;-47
2024/03/02 10:31:32;;;;;;;0.00;0.00;;;27.20;45.70;;;;;;5009313;28;20228;-46
2024/03/02 10:34:03;;;;;;;0.00;0.00;;;27.20;45.80;;;;;;5009586;28;20201;-47
2024/03/02 10:36:35;;;;;;;0.00;0.00;;;27.20;45.70;;;;;;5026131;22;20346;-44
2024/03/02 10:39:07;;;;;;;0.00;0.00;;;27.10;45.50;;;;;;5029751;28;20207;-43
2024/03/02 10:41:38;;;;;;;0.00;0.00;;;27.10;45.40;;;;;;5032212;28;20216;-43
2024/03/02 10:44:12;;;;;;;0.00;0.00;;;27.10;45.30;;;;;;5031982;28;20220;-46
2024/03/02 10:46:42;;;;;;;0.00;0.00;;;27.10;45.30;;;;;;5032885;28;20421;-45
2024/03/02 10:49:13;;;;;;;0.00;0.00;;;27.10;45.40;;;;;;5032373;28;20223;-41
2024/03/02 10:51:44;;;;;;;0.00;0.00;;;27.10;45.40;;;;;;5032425;28;20220;-43
2024/03/02 10:54:14;;;;;;;0.00;0.00;;;27.00;45.40;;;;;;5032015;28;20204;-44
2024/03/02 10:56:46;;;;;;;0.00;0.00;;;27.00;45.30;;;;;;5032282;28;20219;-45
2024/03/02 10:59:31;;;;;;;0.10;0.10;;;27.00;45.40;;;;;;5032436;28;20254;-44
2024/03/02 11:02:02;;;;;;;0.00;0.00;;;27.00;45.40;;;;;;5032653;28;20192;-42
2024/03/02 11:04:34;;;;;;;0.00;0.00;;;27.00;45.50;;;;;;5031774;28;20223;-42
2024/03/02 11:07:07;;;;;;;0.00;0.00;;;27.00;45.60;;;;;;5031961;28;20192;-43
2024/03/02 11:09:41;;;;;;;0.00;0.00;;;27.00;45.60;;;;;;5032136;28;20203;-45
2024/03/02 11:12:18;;;;;;;0.00;0.00;;;26.90;45.60;;;;;;5032487;28;20258;-44
2024/03/02 11:14:53;;;;;;;0.00;0.00;;;26.90;45.70;;;;;;5032642;28;20278;-42
2024/03/02 11:17:25;;;;;;;0.00;0.00;;;27.00;45.80;;;;;;5032136;28;20223;-42
2024/03/02 11:19:57;;;;;;;0.00;0.00;;;26.90;45.80;;;;;;5032418;28;20223;-42
2024/03/02 11:22:28;;;;;;;0.00;0.00;;;26.90;45.80;;;;;;5031718;28;20199;-42
2024/03/02 11:24:59;;;;;;;0.00;0.00;;;26.90;45.90;;;;;;5031216;28;20224;-44
2024/03/02 11:28:22;;;;;;;0.00;0.00;;;26.90;46.00;;;;;;5031567;28;20224;-46
2024/03/02 11:30:56;;;;;;;0.00;0.00;;;26.90;46.00;;;;;;5029119;28;20270;-48
2024/03/02 11:33:30;;;;;;;0.00;0.00;;;26.80;46.00;;;;;;5031578;28;20640;-42
2024/03/02 11:38:38;;;;;;;0.00;0.00;;;26.80;46.20;;;;;;5039697;28;20211;-47
2024/03/02 11:41:11;;;;;;;0.00;0.00;;;26.80;46.30;;;;;;5027913;28;20214;-45
2024/03/02 11:43:44;;;;;;;0.00;0.00;;;26.80;46.30;;;;;;5019784;28;20193;-47
2024/03/02 11:46:18;;;;;;;0.00;0.00;;;26.80;46.30;;;;;;5020590;28;20273;-45
2024/03/02 11:48:50;;;;;;;0.00;0.00;;;26.80;46.30;;;;;;5022091;28;20192;-46
2024/03/02 11:51:21;;;;;;;0.00;0.00;;;26.80;46.30;;;;;;5021694;28;20215;-45
2024/03/02 11:53:52;;;;;;;0.00;0.00;;;26.80;46.30;;;;;;5019388;28;20200;-48
2024/03/02 11:56:23;;;;;;;0.00;0.00;;;26.80;46.30;;;;;;5021807;28;20192;-45
2024/03/02 11:58:57;;;;;;;0.00;0.00;;;26.70;46.20;;;;;;5020472;28;20196;-48
2024/03/02 12:01:31;;;;;;;0.00;0.00;;;26.70;46.20;;;;;;5014710;28;20699;-48
2024/03/02 12:04:03;;;;;;;0.00;0.00;;;26.70;46.30;;;;;;5011853;28;20213;-45
2024/03/02 12:06:33;;;;;;;0.00;0.00;;;26.70;46.30;;;;;;5011584;28;20197;-49
2024/03/02 12:09:04;;;;;;;0.00;0.00;;;26.70;46.30;;;;;;5011224;28;20657;-44
2024/03/02 12:11:35;;;;;;;0.00;0.00;;;26.70;46.40;;;;;;5011449;28;20219;-47
2024/03/02 12:14:05;;;;;;;0.00;0.00;;;26.70;46.40;;;;;;5011656;28;20205;-45
2024/03/02 12:16:38;;;;;;;0.00;0.00;;;26.70;46.40;;;;;;5011779;28;20205;-47
2024/03/02 12:19:09;;;;;;;0.00;0.00;;;26.70;46.40;;;;;;5011459;28;20200;-47
2024/03/02 12:21:40;;;;;;;0.00;0.00;;;26.60;46.30;;;;;;5010844;28;20217;-47
2024/03/02 12:24:11;;;;;;;0.00;0.00;;;26.60;46.40;;;;;;5016665;28;20216;-47
2024/03/02 12:26:42;;;;;;;0.00;0.00;;;26.60;46.40;;;;;;5031004;28;20254;-41
2024/03/02 12:29:13;;;;;;;0.00;0.00;;;26.60;46.40;;;;;;5030838;28;20197;-45
2024/03/02 12:31:47;;;;;;;0.00;0.00;;;26.60;46.40;;;;;;5030910;28;20680;-44
2024/03/02 12:34:18;;;;;;;0.00;0.00;;;26.60;46.40;;;;;;5031413;28;20269;-48
2024/03/02 12:36:52;;;;;;;0.00;0.00;;;26.60;46.40;;;;;;5031446;28;20215;-48
2024/03/02 12:39:24;;;;;;;0.00;0.00;;;26.60;46.40;;;;;;5028227;28;20200;-45
2024/03/02 12:41:55;;;;;;;0.00;0.00;;;26.50;46.30;;;;;;5031152;28;20254;-44
2024/03/02 12:44:25;;;;;;;0.00;0.00;;;26.60;46.40;;;;;;5031178;28;20297;-46
2024/03/02 12:46:58;;;;;;;0.00;0.00;;;26.50;46.40;;;;;;5031166;28;20708;-48
2024/03/02 12:49:30;;;;;;;0.00;0.00;;;26.50;46.40;;;;;;5031192;28;20207;-43
2024/03/02 12:52:02;;;;;;;0.00;0.00;;;26.50;46.40;;;;;;5031087;28;20196;-49
2024/03/02 12:54:33;;;;;;;0.00;0.00;;;26.50;46.40;;;;;;5031140;28;20292;-42
2024/03/02 12:57:04;;;;;;;0.00;0.00;;;26.50;46.40;;;;;;5031215;28;20200;-49
2024/03/02 12:59:35;;;;;;;0.00;0.00;;;26.50;46.50;;;;;;5030531;28;20211;-49
2024/03/02 13:02:10;;;;;;;0.00;0.00;;;26.50;46.50;;;;;;5031083;28;20666;-48
2024/03/02 13:04:41;;;;;;;0.00;0.00;;;26.50;46.50;;;;;;5030732;28;20224;-49
2024/03/02 13:07:13;;;;;;;0.00;0.00;;;26.50;46.60;;;;;;5030597;28;20204;-46
2024/03/02 13:09:44;;;;;;;0.00;0.00;;;26.40;46.50;;;;;;5031217;28;20196;-47
2024/03/02 13:12:17;;;;;;;0.00;0.00;;;26.40;46.50;;;;;;5034974;28;20247;-42
2024/03/02 13:14:50;;;;;;;0.03;0.03;;;26.40;46.50;;;;;;5034441;28;20203;-46
2024/03/02 13:17:23;;;;;;;0.03;0.03;;;26.40;46.50;;;;;;5034517;28;20200;-50
2024/03/02 13:19:58;;;;;;;0.00;0.00;;;26.40;46.50;;;;;;5034614;28;20263;-49